sensor_id;sensor_type;location;lat;lon;timestamp;P1;durP1;ratioP1;P2;durP2;ratioP2
6037;SDS011;3047;42.600;23.470;2023-06-24T00:00:14;1.75;;;1.63;;
6037;SDS011;3047;42.600;23.470;2023-06-24T00:02:42;1.33;;;1.33;;
6037;SDS011;3047;42.600;23.470;2023-06-24T00:05:10;1.10;;;1.10;;
6037;SDS011;3047;42.600;23.470;2023-06-24T00:07:37;1.27;;;1.27;;
6037;SDS011;3047;42.600;23.470;2023-06-24T00:10:09;1.20;;;1.20;;
6037;SDS011;3047;42.600;23.470;2023-06-24T00:12:37;1.48;;;1.48;;
6037;SDS011;3047;42.600;23.470;2023-06-24T00:15:04;1.25;;;1.25;;
6037;SDS011;3047;42.600;23.470;2023-06-24T00:17:32;2.05;;;1.95;;
6037;SDS011;3047;42.600;23.470;2023-06-24T00:20:00;1.00;;;1.00;;
6037;SDS011;3047;42.600;23.470;2023-06-24T00:22:28;1.00;;;1.00;;
6037;SDS011;3047;42.600;23.470;2023-06-24T00:24:54;1.67;;;1.67;;
6037;SDS011;3047;42.600;23.470;2023-06-24T00:27:21;1.10;;;1.10;;
6037;SDS011;3047;42.600;23.470;2023-06-24T00:29:48;1.40;;;1.40;;
6037;SDS011;3047;42.600;23.470;2023-06-24T00:32:15;2.58;;;2.08;;
6037;SDS011;3047;42.600;23.470;2023-06-24T00:34:41;1.90;;;1.48;;
6037;SDS011;3047;42.600;23.470;2023-06-24T00:37:10;1.30;;;1.30;;
6037;SDS011;3047;42.600;23.470;2023-06-24T00:39:36;1.50;;;1.50;;
6037;SDS011;3047;42.600;23.470;2023-06-24T00:42:03;1.10;;;1.10;;
6037;SDS011;3047;42.600;23.470;2023-06-24T00:44:31;1.05;;;1.05;;
6037;SDS011;3047;42.600;23.470;2023-06-24T00:46:58;1.13;;;1.13;;
6037;SDS011;3047;42.600;23.470;2023-06-24T00:49:25;1.15;;;1.15;;
6037;SDS011;3047;42.600;23.470;2023-06-24T00:51:51;1.92;;;1.75;;
6037;SDS011;3047;42.600;23.470;2023-06-24T00:54:19;1.15;;;1.15;;
6037;SDS011;3047;42.600;23.470;2023-06-24T00:56:46;1.52;;;1.42;;
6037;SDS011;3047;42.600;23.470;2023-06-24T00:59:13;1.40;;;1.35;;
6037;SDS011;3047;42.600;23.470;2023-06-24T01:01:42;1.17;;;1.17;;
6037;SDS011;3047;42.600;23.470;2023-06-24T01:04:10;2.20;;;2.10;;
6037;SDS011;3047;42.600;23.470;2023-06-24T01:06:37;1.15;;;1.15;;
6037;SDS011;3047;42.600;23.470;2023-06-24T01:09:08;1.83;;;1.45;;
6037;SDS011;3047;42.600;23.470;2023-06-24T01:11:36;2.08;;;1.98;;
6037;SDS011;3047;42.600;23.470;2023-06-24T01:14:03;1.00;;;1.00;;
6037;SDS011;3047;42.600;23.470;2023-06-24T01:16:32;0.80;;;0.80;;
6037;SDS011;3047;42.600;23.470;2023-06-24T01:19:07;1.05;;;1.05;;
6037;SDS011;3047;42.600;23.470;2023-06-24T01:21:56;1.42;;;1.42;;
6037;SDS011;3047;42.600;23.470;2023-06-24T01:27:54;1.15;;;1.15;;
6037;SDS011;3047;42.600;23.470;2023-06-24T01:33:23;1.08;;;1.08;;
6037;SDS011;3047;42.600;23.470;2023-06-24T01:35:55;2.38;;;1.48;;
6037;SDS011;3047;42.600;23.470;2023-06-24T01:38:24;1.67;;;1.58;;
6037;SDS011;3047;42.600;23.470;2023-06-24T01:40:57;1.08;;;1.08;;
6037;SDS011;3047;42.600;23.470;2023-06-24T01:43:27;1.10;;;1.10;;
6037;SDS011;3047;42.600;23.470;2023-06-24T01:45:54;1.58;;;1.58;;
6037;SDS011;3047;42.600;23.470;2023-06-24T01:48:24;1.20;;;1.20;;
6037;SDS011;3047;42.600;23.470;2023-06-24T01:50:55;1.13;;;1.13;;
6037;SDS011;3047;42.600;23.470;2023-06-24T01:53:26;1.67;;;1.67;;
6037;SDS011;3047;42.600;23.470;2023-06-24T01:55:54;1.02;;;1.02;;
6037;SDS011;3047;42.600;23.470;2023-06-24T01:58:26;1.90;;;1.80;;
6037;SDS011;3047;42.600;23.470;2023-06-24T02:00:54;1.52;;;1.52;;
6037;SDS011;3047;42.600;23.470;2023-06-24T02:03:24;1.42;;;1.42;;
6037;SDS011;3047;42.600;23.470;2023-06-24T02:05:52;1.70;;;1.70;;
6037;SDS011;3047;42.600;23.470;2023-06-24T02:08:20;1.23;;;1.23;;
6037;SDS011;3047;42.600;23.470;2023-06-24T02:10:48;1.10;;;1.10;;
6037;SDS011;3047;42.600;23.470;2023-06-24T02:13:16;1.40;;;1.40;;
6037;SDS011;3047;42.600;23.470;2023-06-24T02:15:45;1.52;;;1.52;;
6037;SDS011;3047;42.600;23.470;2023-06-24T02:18:13;1.20;;;1.20;;
6037;SDS011;3047;42.600;23.470;2023-06-24T02:20:43;0.70;;;0.70;;
6037;SDS011;3047;42.600;23.470;2023-06-24T02:23:11;1.35;;;1.35;;
6037;SDS011;3047;42.600;23.470;2023-06-24T02:25:40;1.02;;;1.02;;
6037;SDS011;3047;42.600;23.470;2023-06-24T02:28:07;1.25;;;1.25;;
6037;SDS011;3047;42.600;23.470;2023-06-24T02:30:35;0.98;;;0.98;;
6037;SDS011;3047;42.600;23.470;2023-06-24T02:33:04;1.63;;;1.63;;
6037;SDS011;3047;42.600;23.470;2023-06-24T02:35:31;1.23;;;1.23;;
6037;SDS011;3047;42.600;23.470;2023-06-24T02:38:00;1.00;;;1.00;;
6037;SDS011;3047;42.600;23.470;2023-06-24T02:40:28;1.30;;;1.30;;
6037;SDS011;3047;42.600;23.470;2023-06-24T02:42:56;1.08;;;1.08;;
6037;SDS011;3047;42.600;23.470;2023-06-24T02:45:23;1.70;;;1.60;;
6037;SDS011;3047;42.600;23.470;2023-06-24T02:47:50;1.85;;;1.75;;
6037;SDS011;3047;42.600;23.470;2023-06-24T02:50:18;1.10;;;1.10;;
6037;SDS011;3047;42.600;23.470;2023-06-24T02:52:46;1.13;;;1.13;;
6037;SDS011;3047;42.600;23.470;2023-06-24T02:55:15;1.08;;;1.08;;
6037;SDS011;3047;42.600;23.470;2023-06-24T02:57:42;1.20;;;1.20;;
6037;SDS011;3047;42.600;23.470;2023-06-24T03:00:09;1.98;;;1.98;;
6037;SDS011;3047;42.600;23.470;2023-06-24T03:02:38;1.50;;;1.40;;
6037;SDS011;3047;42.600;23.470;2023-06-24T03:05:05;1.20;;;1.20;;
6037;SDS011;3047;42.600;23.470;2023-06-24T03:07:33;1.10;;;1.10;;
6037;SDS011;3047;42.600;23.470;2023-06-24T03:10:01;1.10;;;1.10;;
6037;SDS011;3047;42.600;23.470;2023-06-24T03:12:31;1.67;;;1.20;;
6037;SDS011;3047;42.600;23.470;2023-06-24T03:14:58;1.38;;;1.38;;
6037;SDS011;3047;42.600;23.470;2023-06-24T03:17:25;1.30;;;1.30;;
6037;SDS011;3047;42.600;23.470;2023-06-24T03:19:52;1.15;;;1.13;;
6037;SDS011;3047;42.600;23.470;2023-06-24T03:22:19;1.02;;;1.02;;
6037;SDS011;3047;42.600;23.470;2023-06-24T03:24:45;1.20;;;1.20;;
6037;SDS011;3047;42.600;23.470;2023-06-24T03:27:12;1.63;;;1.52;;
6037;SDS011;3047;42.600;23.470;2023-06-24T03:29:40;1.20;;;1.20;;
6037;SDS011;3047;42.600;23.470;2023-06-24T03:32:07;0.90;;;0.90;;
6037;SDS011;3047;42.600;23.470;2023-06-24T03:34:34;1.10;;;1.10;;
6037;SDS011;3047;42.600;23.470;2023-06-24T03:37:01;1.83;;;1.83;;
6037;SDS011;3047;42.600;23.470;2023-06-24T03:39:29;1.17;;;1.10;;
6037;SDS011;3047;42.600;23.470;2023-06-24T03:41:56;1.13;;;1.13;;
6037;SDS011;3047;42.600;23.470;2023-06-24T03:44:22;1.33;;;1.33;;
6037;SDS011;3047;42.600;23.470;2023-06-24T03:46:50;1.85;;;1.85;;
6037;SDS011;3047;42.600;23.470;2023-06-24T03:49:17;1.50;;;1.40;;
6037;SDS011;3047;42.600;23.470;2023-06-24T03:51:44;1.27;;;1.27;;
6037;SDS011;3047;42.600;23.470;2023-06-24T03:54:10;1.10;;;1.10;;
6037;SDS011;3047;42.600;23.470;2023-06-24T03:56:37;1.90;;;1.80;;
6037;SDS011;3047;42.600;23.470;2023-06-24T03:59:04;1.13;;;1.13;;
6037;SDS011;3047;42.600;23.470;2023-06-24T04:01:30;1.75;;;1.75;;
6037;SDS011;3047;42.600;23.470;2023-06-24T04:03:59;1.30;;;1.30;;
6037;SDS011;3047;42.600;23.470;2023-06-24T04:06:26;2.97;;;2.78;;
6037;SDS011;3047;42.600;23.470;2023-06-24T04:08:52;1.20;;;1.20;;
6037;SDS011;3047;42.600;23.470;2023-06-24T04:11:19;1.23;;;1.23;;
6037;SDS011;3047;42.600;23.470;2023-06-24T04:13:46;1.35;;;1.35;;
6037;SDS011;3047;42.600;23.470;2023-06-24T04:16:13;1.92;;;1.92;;
6037;SDS011;3047;42.600;23.470;2023-06-24T04:18:40;1.88;;;1.88;;
6037;SDS011;3047;42.600;23.470;2023-06-24T04:21:08;0.93;;;0.93;;
6037;SDS011;3047;42.600;23.470;2023-06-24T04:23:35;1.27;;;1.27;;
6037;SDS011;3047;42.600;23.470;2023-06-24T04:26:02;1.90;;;1.25;;
6037;SDS011;3047;42.600;23.470;2023-06-24T04:28:28;1.15;;;1.15;;
6037;SDS011;3047;42.600;23.470;2023-06-24T04:30:55;2.70;;;1.10;;
6037;SDS011;3047;42.600;23.470;2023-06-24T04:33:22;1.33;;;1.30;;
6037;SDS011;3047;42.600;23.470;2023-06-24T04:35:49;1.40;;;1.40;;
6037;SDS011;3047;42.600;23.470;2023-06-24T04:38:18;1.00;;;1.00;;
6037;SDS011;3047;42.600;23.470;2023-06-24T04:40:45;1.23;;;1.10;;
6037;SDS011;3047;42.600;23.470;2023-06-24T04:43:12;1.30;;;1.25;;
6037;SDS011;3047;42.600;23.470;2023-06-24T04:45:38;1.50;;;1.50;;
6037;SDS011;3047;42.600;23.470;2023-06-24T04:48:05;1.20;;;1.08;;
6037;SDS011;3047;42.600;23.470;2023-06-24T04:50:32;1.20;;;1.20;;
6037;SDS011;3047;42.600;23.470;2023-06-24T04:52:59;2.80;;;2.05;;
6037;SDS011;3047;42.600;23.470;2023-06-24T04:55:28;0.93;;;0.93;;
6037;SDS011;3047;42.600;23.470;2023-06-24T04:57:56;1.77;;;1.70;;
6037;SDS011;3047;42.600;23.470;2023-06-24T05:00:23;2.05;;;2.05;;
6037;SDS011;3047;42.600;23.470;2023-06-24T05:02:49;1.17;;;1.17;;
6037;SDS011;3047;42.600;23.470;2023-06-24T05:05:17;2.72;;;1.42;;
6037;SDS011;3047;42.600;23.470;2023-06-24T05:07:44;1.25;;;1.25;;
6037;SDS011;3047;42.600;23.470;2023-06-24T05:10:10;1.50;;;1.50;;
6037;SDS011;3047;42.600;23.470;2023-06-24T05:12:38;1.38;;;1.38;;
6037;SDS011;3047;42.600;23.470;2023-06-24T05:15:05;1.80;;;1.80;;
6037;SDS011;3047;42.600;23.470;2023-06-24T05:17:33;1.50;;;1.50;;
6037;SDS011;3047;42.600;23.470;2023-06-24T05:20:00;1.88;;;1.88;;
6037;SDS011;3047;42.600;23.470;2023-06-24T05:22:27;1.60;;;1.60;;
6037;SDS011;3047;42.600;23.470;2023-06-24T05:24:54;1.10;;;1.10;;
6037;SDS011;3047;42.600;23.470;2023-06-24T05:27:21;0.98;;;0.98;;
6037;SDS011;3047;42.600;23.470;2023-06-24T05:29:49;1.20;;;1.20;;
6037;SDS011;3047;42.600;23.470;2023-06-24T05:32:15;1.00;;;1.00;;
6037;SDS011;3047;42.600;23.470;2023-06-24T05:34:45;1.08;;;1.08;;
6037;SDS011;3047;42.600;23.470;2023-06-24T05:37:12;1.23;;;1.23;;
6037;SDS011;3047;42.600;23.470;2023-06-24T05:39:39;1.42;;;1.42;;
6037;SDS011;3047;42.600;23.470;2023-06-24T05:42:06;1.00;;;1.00;;
6037;SDS011;3047;42.600;23.470;2023-06-24T05:44:33;1.58;;;1.48;;
6037;SDS011;3047;42.600;23.470;2023-06-24T05:47:01;1.38;;;1.38;;
6037;SDS011;3047;42.600;23.470;2023-06-24T05:49:28;1.63;;;1.52;;
6037;SDS011;3047;42.600;23.470;2023-06-24T05:51:54;1.27;;;1.27;;
6037;SDS011;3047;42.600;23.470;2023-06-24T05:54:22;1.30;;;1.30;;
6037;SDS011;3047;42.600;23.470;2023-06-24T05:56:48;1.67;;;1.67;;
6037;SDS011;3047;42.600;23.470;2023-06-24T05:59:15;1.80;;;1.70;;
6037;SDS011;3047;42.600;23.470;2023-06-24T06:01:42;1.63;;;1.63;;
6037;SDS011;3047;42.600;23.470;2023-06-24T06:04:10;1.90;;;1.90;;
6037;SDS011;3047;42.600;23.470;2023-06-24T06:06:36;1.52;;;1.52;;
6037;SDS011;3047;42.600;23.470;2023-06-24T06:09:04;1.80;;;1.75;;
6037;SDS011;3047;42.600;23.470;2023-06-24T06:11:31;1.63;;;1.52;;
6037;SDS011;3047;42.600;23.470;2023-06-24T06:13:58;1.30;;;1.30;;
6037;SDS011;3047;42.600;23.470;2023-06-24T06:16:25;1.55;;;1.45;;
6037;SDS011;3047;42.600;23.470;2023-06-24T06:18:53;1.80;;;1.70;;
6037;SDS011;3047;42.600;23.470;2023-06-24T06:21:21;1.30;;;1.20;;
6037;SDS011;3047;42.600;23.470;2023-06-24T06:23:48;1.13;;;1.13;;
6037;SDS011;3047;42.600;23.470;2023-06-24T06:26:14;1.27;;;1.25;;
6037;SDS011;3047;42.600;23.470;2023-06-24T06:28:41;1.30;;;1.30;;
6037;SDS011;3047;42.600;23.470;2023-06-24T06:31:08;1.38;;;1.38;;
6037;SDS011;3047;42.600;23.470;2023-06-24T06:33:35;1.50;;;1.50;;
6037;SDS011;3047;42.600;23.470;2023-06-24T06:36:02;1.38;;;1.38;;
6037;SDS011;3047;42.600;23.470;2023-06-24T06:38:31;1.67;;;1.58;;
6037;SDS011;3047;42.600;23.470;2023-06-24T06:40:59;1.60;;;1.52;;
6037;SDS011;3047;42.600;23.470;2023-06-24T06:43:26;1.70;;;1.70;;
6037;SDS011;3047;42.600;23.470;2023-06-24T06:45:53;1.30;;;1.30;;
6037;SDS011;3047;42.600;23.470;2023-06-24T06:48:19;1.80;;;1.80;;
6037;SDS011;3047;42.600;23.470;2023-06-24T06:50:46;2.08;;;2.03;;
6037;SDS011;3047;42.600;23.470;2023-06-24T06:53:13;1.77;;;1.67;;
6037;SDS011;3047;42.600;23.470;2023-06-24T06:55:41;1.45;;;1.45;;
6037;SDS011;3047;42.600;23.470;2023-06-24T06:58:08;1.92;;;1.83;;
6037;SDS011;3047;42.600;23.470;2023-06-24T07:00:35;2.03;;;1.73;;
6037;SDS011;3047;42.600;23.470;2023-06-24T07:03:02;1.95;;;1.88;;
6037;SDS011;3047;42.600;23.470;2023-06-24T07:05:29;1.60;;;1.60;;
6037;SDS011;3047;42.600;23.470;2023-06-24T07:07:56;1.92;;;1.83;;
6037;SDS011;3047;42.600;23.470;2023-06-24T07:10:22;1.48;;;1.48;;
6037;SDS011;3047;42.600;23.470;2023-06-24T07:12:51;1.90;;;1.80;;
6037;SDS011;3047;42.600;23.470;2023-06-24T07:15:23;1.75;;;1.65;;
6037;SDS011;3047;42.600;23.470;2023-06-24T07:17:50;1.73;;;1.67;;
6037;SDS011;3047;42.600;23.470;2023-06-24T07:20:17;2.35;;;2.25;;
6037;SDS011;3047;42.600;23.470;2023-06-24T07:22:44;1.70;;;1.60;;
6037;SDS011;3047;42.600;23.470;2023-06-24T07:25:10;2.03;;;1.92;;
6037;SDS011;3047;42.600;23.470;2023-06-24T07:27:37;1.40;;;1.40;;
6037;SDS011;3047;42.600;23.470;2023-06-24T07:30:06;2.33;;;1.90;;
6037;SDS011;3047;42.600;23.470;2023-06-24T07:32:33;1.63;;;1.63;;
6037;SDS011;3047;42.600;23.470;2023-06-24T07:35:00;1.88;;;1.85;;
6037;SDS011;3047;42.600;23.470;2023-06-24T07:37:27;1.35;;;1.35;;
6037;SDS011;3047;42.600;23.470;2023-06-24T07:39:53;2.00;;;1.80;;
6037;SDS011;3047;42.600;23.470;2023-06-24T07:42:20;1.70;;;1.60;;
6037;SDS011;3047;42.600;23.470;2023-06-24T07:44:47;2.33;;;2.22;;
6037;SDS011;3047;42.600;23.470;2023-06-24T07:47:16;2.05;;;1.95;;
6037;SDS011;3047;42.600;23.470;2023-06-24T07:49:43;2.15;;;2.05;;
6037;SDS011;3047;42.600;23.470;2023-06-24T07:52:09;1.50;;;1.45;;
6037;SDS011;3047;42.600;23.470;2023-06-24T07:54:36;1.48;;;1.38;;
6037;SDS011;3047;42.600;23.470;2023-06-24T07:57:03;2.08;;;1.95;;
6037;SDS011;3047;42.600;23.470;2023-06-24T07:59:30;2.78;;;2.20;;
6037;SDS011;3047;42.600;23.470;2023-06-24T08:01:57;2.47;;;2.28;;
6037;SDS011;3047;42.600;23.470;2023-06-24T08:04:25;3.95;;;2.83;;
6037;SDS011;3047;42.600;23.470;2023-06-24T08:06:51;2.70;;;2.53;;
6037;SDS011;3047;42.600;23.470;2023-06-24T08:09:18;5.05;;;2.95;;
6037;SDS011;3047;42.600;23.470;2023-06-24T08:11:45;2.80;;;2.53;;
6037;SDS011;3047;42.600;23.470;2023-06-24T08:14:12;1.70;;;1.70;;
6037;SDS011;3047;42.600;23.470;2023-06-24T08:16:39;4.60;;;2.20;;
6037;SDS011;3047;42.600;23.470;2023-06-24T08:19:05;1.90;;;1.88;;
6037;SDS011;3047;42.600;23.470;2023-06-24T08:21:33;2.50;;;2.33;;
6037;SDS011;3047;42.600;23.470;2023-06-24T08:24:00;3.08;;;2.25;;
6037;SDS011;3047;42.600;23.470;2023-06-24T08:26:27;3.03;;;2.20;;
6037;SDS011;3047;42.600;23.470;2023-06-24T08:28:54;2.13;;;1.85;;
6037;SDS011;3047;42.600;23.470;2023-06-24T08:31:20;2.97;;;2.75;;
6037;SDS011;3047;42.600;23.470;2023-06-24T08:33:51;4.00;;;2.05;;
6037;SDS011;3047;42.600;23.470;2023-06-24T08:36:18;2.15;;;2.05;;
6037;SDS011;3047;42.600;23.470;2023-06-24T08:38:46;2.72;;;2.53;;
6037;SDS011;3047;42.600;23.470;2023-06-24T08:41:13;3.20;;;2.90;;
6037;SDS011;3047;42.600;23.470;2023-06-24T08:43:39;3.15;;;2.30;;
6037;SDS011;3047;42.600;23.470;2023-06-24T08:46:08;2.40;;;2.30;;
6037;SDS011;3047;42.600;23.470;2023-06-24T08:48:35;2.15;;;2.00;;
6037;SDS011;3047;42.600;23.470;2023-06-24T08:51:05;4.55;;;2.83;;
6037;SDS011;3047;42.600;23.470;2023-06-24T08:53:33;2.78;;;2.45;;
6037;SDS011;3047;42.600;23.470;2023-06-24T08:56:03;3.03;;;2.83;;
6037;SDS011;3047;42.600;23.470;2023-06-24T08:58:30;5.57;;;3.08;;
6037;SDS011;3047;42.600;23.470;2023-06-24T09:00:57;6.20;;;2.30;;
6037;SDS011;3047;42.600;23.470;2023-06-24T09:03:24;3.22;;;2.92;;
6037;SDS011;3047;42.600;23.470;2023-06-24T09:05:51;3.00;;;2.70;;
6037;SDS011;3047;42.600;23.470;2023-06-24T09:08:17;2.80;;;2.50;;
6037;SDS011;3047;42.600;23.470;2023-06-24T09:10:46;3.35;;;2.85;;
6037;SDS011;3047;42.600;23.470;2023-06-24T09:13:21;3.25;;;2.58;;
6037;SDS011;3047;42.600;23.470;2023-06-24T09:15:53;3.17;;;2.78;;
6037;SDS011;3047;42.600;23.470;2023-06-24T09:18:26;2.50;;;2.30;;
6037;SDS011;3047;42.600;23.470;2023-06-24T09:20:57;3.30;;;2.75;;
6037;SDS011;3047;42.600;23.470;2023-06-24T09:23:26;3.08;;;2.80;;
6037;SDS011;3047;42.600;23.470;2023-06-24T09:25:55;2.30;;;2.10;;
6037;SDS011;3047;42.600;23.470;2023-06-24T09:28:27;4.13;;;3.70;;
6037;SDS011;3047;42.600;23.470;2023-06-24T09:31:03;4.40;;;4.00;;
6037;SDS011;3047;42.600;23.470;2023-06-24T09:33:31;4.93;;;3.10;;
6037;SDS011;3047;42.600;23.470;2023-06-24T09:35:59;3.10;;;2.80;;
6037;SDS011;3047;42.600;23.470;2023-06-24T09:38:34;2.63;;;2.42;;
6037;SDS011;3047;42.600;23.470;2023-06-24T09:41:02;3.45;;;2.78;;
6037;SDS011;3047;42.600;23.470;2023-06-24T09:43:31;4.05;;;3.13;;
6037;SDS011;3047;42.600;23.470;2023-06-24T09:46:00;5.20;;;3.53;;
6037;SDS011;3047;42.600;23.470;2023-06-24T09:48:28;3.55;;;2.65;;
6037;SDS011;3047;42.600;23.470;2023-06-24T09:50:54;3.30;;;3.00;;
6037;SDS011;3047;42.600;23.470;2023-06-24T09:53:25;3.97;;;3.58;;
6037;SDS011;3047;42.600;23.470;2023-06-24T09:55:52;3.30;;;3.00;;
6037;SDS011;3047;42.600;23.470;2023-06-24T09:58:19;3.60;;;3.10;;
6037;SDS011;3047;42.600;23.470;2023-06-24T10:00:48;5.32;;;3.50;;
6037;SDS011;3047;42.600;23.470;2023-06-24T10:03:16;3.33;;;2.65;;
6037;SDS011;3047;42.600;23.470;2023-06-24T10:05:43;3.85;;;2.85;;
6037;SDS011;3047;42.600;23.470;2023-06-24T10:08:10;3.35;;;2.25;;
6037;SDS011;3047;42.600;23.470;2023-06-24T10:10:40;2.35;;;2.22;;
6037;SDS011;3047;42.600;23.470;2023-06-24T10:13:06;2.90;;;2.70;;
6037;SDS011;3047;42.600;23.470;2023-06-24T10:15:34;3.33;;;3.03;;
6037;SDS011;3047;42.600;23.470;2023-06-24T10:18:03;3.40;;;3.20;;
6037;SDS011;3047;42.600;23.470;2023-06-24T10:20:50;3.45;;;3.00;;
6037;SDS011;3047;42.600;23.470;2023-06-24T10:23:16;3.00;;;2.63;;
6037;SDS011;3047;42.600;23.470;2023-06-24T10:25:43;3.38;;;3.08;;
6037;SDS011;3047;42.600;23.470;2023-06-24T10:28:13;2.30;;;2.10;;
6037;SDS011;3047;42.600;23.470;2023-06-24T10:30:40;3.05;;;2.80;;
6037;SDS011;3047;42.600;23.470;2023-06-24T10:33:22;3.83;;;3.60;;
6037;SDS011;3047;42.600;23.470;2023-06-24T10:35:50;3.65;;;3.33;;
6037;SDS011;3047;42.600;23.470;2023-06-24T10:38:18;3.53;;;2.92;;
6037;SDS011;3047;42.600;23.470;2023-06-24T10:40:44;3.00;;;2.78;;
6037;SDS011;3047;42.600;23.470;2023-06-24T10:43:27;2.80;;;2.60;;
6037;SDS011;3047;42.600;23.470;2023-06-24T10:45:55;3.08;;;2.78;;
6037;SDS011;3047;42.600;23.470;2023-06-24T10:48:24;2.75;;;2.63;;
6037;SDS011;3047;42.600;23.470;2023-06-24T10:50:51;3.47;;;3.10;;
6037;SDS011;3047;42.600;23.470;2023-06-24T10:53:18;2.67;;;2.33;;
6037;SDS011;3047;42.600;23.470;2023-06-24T10:55:45;2.60;;;2.40;;
6037;SDS011;3047;42.600;23.470;2023-06-24T10:58:12;3.13;;;2.92;;
6037;SDS011;3047;42.600;23.470;2023-06-24T11:00:40;2.70;;;2.60;;
6037;SDS011;3047;42.600;23.470;2023-06-24T11:03:09;3.22;;;2.75;;
6037;SDS011;3047;42.600;23.470;2023-06-24T11:05:39;2.83;;;2.63;;
6037;SDS011;3047;42.600;23.470;2023-06-24T11:08:06;2.47;;;2.38;;
6037;SDS011;3047;42.600;23.470;2023-06-24T11:10:33;2.88;;;2.63;;
6037;SDS011;3047;42.600;23.470;2023-06-24T11:13:07;3.63;;;3.40;;
6037;SDS011;3047;42.600;23.470;2023-06-24T11:15:34;3.10;;;2.78;;
6037;SDS011;3047;42.600;23.470;2023-06-24T11:18:01;2.97;;;2.70;;
6037;SDS011;3047;42.600;23.470;2023-06-24T11:20:29;2.75;;;2.55;;
6037;SDS011;3047;42.600;23.470;2023-06-24T11:22:57;2.15;;;2.05;;
6037;SDS011;3047;42.600;23.470;2023-06-24T11:25:23;3.22;;;2.92;;
6037;SDS011;3047;42.600;23.470;2023-06-24T11:27:50;2.90;;;2.58;;
6037;SDS011;3047;42.600;23.470;2023-06-24T11:30:18;3.30;;;3.00;;
6037;SDS011;3047;42.600;23.470;2023-06-24T11:32:45;3.22;;;2.80;;
6037;SDS011;3047;42.600;23.470;2023-06-24T11:35:13;3.83;;;2.75;;
6037;SDS011;3047;42.600;23.470;2023-06-24T11:37:41;3.33;;;3.05;;
6037;SDS011;3047;42.600;23.470;2023-06-24T11:40:10;4.20;;;2.33;;
6037;SDS011;3047;42.600;23.470;2023-06-24T11:42:38;2.50;;;2.40;;
6037;SDS011;3047;42.600;23.470;2023-06-24T11:45:08;3.45;;;3.15;;
6037;SDS011;3047;42.600;23.470;2023-06-24T11:47:37;2.63;;;2.47;;
6037;SDS011;3047;42.600;23.470;2023-06-24T11:50:05;2.85;;;2.58;;
6037;SDS011;3047;42.600;23.470;2023-06-24T11:52:37;2.45;;;2.33;;
6037;SDS011;3047;42.600;23.470;2023-06-24T11:55:12;3.10;;;2.38;;
6037;SDS011;3047;42.600;23.470;2023-06-24T11:57:52;2.67;;;2.47;;
6037;SDS011;3047;42.600;23.470;2023-06-24T12:00:20;2.92;;;2.72;;
6037;SDS011;3047;42.600;23.470;2023-06-24T12:02:55;2.67;;;2.58;;
6037;SDS011;3047;42.600;23.470;2023-06-24T12:05:23;3.97;;;3.03;;
6037;SDS011;3047;42.600;23.470;2023-06-24T12:07:53;3.15;;;2.80;;
6037;SDS011;3047;42.600;23.470;2023-06-24T12:10:22;1.92;;;1.48;;
6037;SDS011;3047;42.600;23.470;2023-06-24T12:12:49;4.03;;;3.67;;
6037;SDS011;3047;42.600;23.470;2023-06-24T12:15:16;2.42;;;2.22;;
6037;SDS011;3047;42.600;23.470;2023-06-24T12:17:43;2.60;;;2.40;;
6037;SDS011;3047;42.600;23.470;2023-06-24T12:20:10;2.72;;;2.53;;
6037;SDS011;3047;42.600;23.470;2023-06-24T12:22:38;3.20;;;2.33;;
6037;SDS011;3047;42.600;23.470;2023-06-24T12:25:05;1.85;;;1.75;;
6037;SDS011;3047;42.600;23.470;2023-06-24T12:27:34;2.75;;;2.55;;
6037;SDS011;3047;42.600;23.470;2023-06-24T12:30:01;2.30;;;2.20;;
6037;SDS011;3047;42.600;23.470;2023-06-24T12:32:28;2.80;;;2.70;;
6037;SDS011;3047;42.600;23.470;2023-06-24T12:34:55;2.13;;;2.03;;
6037;SDS011;3047;42.600;23.470;2023-06-24T12:37:21;3.70;;;3.50;;
6037;SDS011;3047;42.600;23.470;2023-06-24T12:39:48;2.25;;;2.10;;
6037;SDS011;3047;42.600;23.470;2023-06-24T12:42:16;1.90;;;1.80;;
6037;SDS011;3047;42.600;23.470;2023-06-24T12:44:44;3.20;;;3.03;;
6037;SDS011;3047;42.600;23.470;2023-06-24T12:47:11;2.63;;;2.42;;
6037;SDS011;3047;42.600;23.470;2023-06-24T12:49:37;2.22;;;2.13;;
6037;SDS011;3047;42.600;23.470;2023-06-24T12:52:04;3.47;;;1.90;;
6037;SDS011;3047;42.600;23.470;2023-06-24T12:54:31;2.70;;;2.50;;
6037;SDS011;3047;42.600;23.470;2023-06-24T12:56:57;3.50;;;2.42;;
6037;SDS011;3047;42.600;23.470;2023-06-24T12:59:24;2.53;;;2.33;;
6037;SDS011;3047;42.600;23.470;2023-06-24T13:01:52;2.97;;;2.47;;
6037;SDS011;3047;42.600;23.470;2023-06-24T13:04:19;2.20;;;2.10;;
6037;SDS011;3047;42.600;23.470;2023-06-24T13:06:47;2.30;;;2.20;;
6037;SDS011;3047;42.600;23.470;2023-06-24T13:09:14;2.20;;;2.10;;
6037;SDS011;3047;42.600;23.470;2023-06-24T13:11:41;2.30;;;2.05;;
6037;SDS011;3047;42.600;23.470;2023-06-24T13:14:08;2.75;;;2.55;;
6037;SDS011;3047;42.600;23.470;2023-06-24T13:16:35;1.90;;;1.90;;
6037;SDS011;3047;42.600;23.470;2023-06-24T13:19:04;2.67;;;2.47;;
6037;SDS011;3047;42.600;23.470;2023-06-24T13:21:31;3.83;;;2.88;;
6037;SDS011;3047;42.600;23.470;2023-06-24T13:23:57;1.73;;;1.70;;
6037;SDS011;3047;42.600;23.470;2023-06-24T13:26:24;2.13;;;2.03;;
6037;SDS011;3047;42.600;23.470;2023-06-24T13:28:51;3.30;;;3.00;;
6037;SDS011;3047;42.600;23.470;2023-06-24T13:31:19;1.95;;;1.85;;
6037;SDS011;3047;42.600;23.470;2023-06-24T13:33:46;2.10;;;2.00;;
6037;SDS011;3047;42.600;23.470;2023-06-24T13:36:28;2.03;;;1.92;;
6037;SDS011;3047;42.600;23.470;2023-06-24T13:38:57;2.28;;;2.20;;
6037;SDS011;3047;42.600;23.470;2023-06-24T13:41:24;4.68;;;4.38;;
6037;SDS011;3047;42.600;23.470;2023-06-24T13:43:54;2.10;;;1.98;;
6037;SDS011;3047;42.600;23.470;2023-06-24T13:46:21;1.90;;;1.83;;
6037;SDS011;3047;42.600;23.470;2023-06-24T13:48:48;2.60;;;2.50;;
6037;SDS011;3047;42.600;23.470;2023-06-24T13:51:17;3.05;;;2.85;;
6037;SDS011;3047;42.600;23.470;2023-06-24T13:53:45;2.72;;;2.63;;
6037;SDS011;3047;42.600;23.470;2023-06-24T13:56:11;2.33;;;1.98;;
6037;SDS011;3047;42.600;23.470;2023-06-24T13:58:38;2.17;;;2.08;;
6037;SDS011;3047;42.600;23.470;2023-06-24T14:01:05;1.63;;;1.63;;
6037;SDS011;3047;42.600;23.470;2023-06-24T14:03:31;1.65;;;1.58;;
6037;SDS011;3047;42.600;23.470;2023-06-24T14:05:58;1.92;;;1.83;;
6037;SDS011;3047;42.600;23.470;2023-06-24T14:08:27;1.92;;;1.50;;
6037;SDS011;3047;42.600;23.470;2023-06-24T14:10:55;4.32;;;1.50;;
6037;SDS011;3047;42.600;23.470;2023-06-24T14:13:21;2.05;;;1.55;;
6037;SDS011;3047;42.600;23.470;2023-06-24T14:15:48;1.88;;;1.88;;
6037;SDS011;3047;42.600;23.470;2023-06-24T14:18:15;1.30;;;1.30;;
6037;SDS011;3047;42.600;23.470;2023-06-24T14:20:42;1.52;;;1.52;;
6037;SDS011;3047;42.600;23.470;2023-06-24T14:23:08;1.85;;;1.85;;
6037;SDS011;3047;42.600;23.470;2023-06-24T14:25:37;1.58;;;1.55;;
6037;SDS011;3047;42.600;23.470;2023-06-24T14:28:03;1.63;;;1.63;;
6037;SDS011;3047;42.600;23.470;2023-06-24T14:30:30;2.47;;;2.38;;
6037;SDS011;3047;42.600;23.470;2023-06-24T14:32:57;1.60;;;1.60;;
6037;SDS011;3047;42.600;23.470;2023-06-24T14:35:24;1.95;;;1.85;;
6037;SDS011;3047;42.600;23.470;2023-06-24T14:37:50;2.13;;;2.03;;
6037;SDS011;3047;42.600;23.470;2023-06-24T14:40:17;2.83;;;2.72;;
6037;SDS011;3047;42.600;23.470;2023-06-24T14:42:45;1.77;;;1.67;;
6037;SDS011;3047;42.600;23.470;2023-06-24T14:45:12;2.10;;;2.00;;
6037;SDS011;3047;42.600;23.470;2023-06-24T14:47:39;2.05;;;2.03;;
6037;SDS011;3047;42.600;23.470;2023-06-24T14:50:06;1.20;;;1.20;;
6037;SDS011;3047;42.600;23.470;2023-06-24T14:52:33;1.55;;;1.50;;
6037;SDS011;3047;42.600;23.470;2023-06-24T14:55:00;1.60;;;1.60;;
6037;SDS011;3047;42.600;23.470;2023-06-24T14:57:26;1.15;;;1.15;;
6037;SDS011;3047;42.600;23.470;2023-06-24T14:59:54;1.20;;;1.20;;
6037;SDS011;3047;42.600;23.470;2023-06-24T15:02:21;1.05;;;1.05;;
6037;SDS011;3047;42.600;23.470;2023-06-24T15:04:49;1.48;;;1.45;;
6037;SDS011;3047;42.600;23.470;2023-06-24T15:07:16;1.63;;;1.63;;
6037;SDS011;3047;42.600;23.470;2023-06-24T15:26:04;1.95;;;1.90;;